Time;durP1;ratioP1;P1;durP2;ratioP2;P2;SDS_P1;SDS_P2;PMS_P1;PMS_P2;Temp;Humidity;BMP_temperature;BMP_pressure;BME280_temperature;BME280_humidity;BME280_pressure;Samples;Min_cycle;Max_cycle;Signal;HPM_P1;HPM_P2
2022/06/22 00:01:58;;;;;;;7.50;3.80;;;;;;;13.90;100.00;101507.13;4960667;28;20461;-80
2022/06/22 00:04:32;;;;;;;6.53;4.00;;;;;;;13.66;100.00;101470.78;4955910;28;20839;-78
2022/06/22 00:07:03;;;;;;;4.20;3.40;;;;;;;13.53;100.00;101488.56;4957778;28;20835;-79
2022/06/22 00:09:32;;;;;;;4.27;3.70;;;;;;;13.68;100.00;101511.81;4960361;28;20442;-78
2022/06/22 00:11:58;;;;;;;4.40;3.10;;;;;;;13.33;100.00;101461.53;4956929;28;20456;-79
2022/06/22 00:14:36;;;;;;;4.93;4.37;;;;;;;13.64;100.00;101532.97;4958757;28;20522;-79
2022/06/22 00:17:01;;;;;;;7.40;4.20;;;;;;;13.47;100.00;101493.94;4959198;28;20519;-78
2022/06/22 00:19:31;;;;;;;5.60;3.40;;;;;;;12.60;100.00;101360.75;4957756;28;20438;-79
2022/06/22 00:21:57;;;;;;;4.87;3.87;;;;;;;13.58;100.00;101533.78;4962442;28;20257;-79
2022/06/22 00:24:22;;;;;;;4.67;3.93;;;;;;;13.60;100.00;101533.56;4957298;28;20623;-79
2022/06/22 00:26:56;;;;;;;5.20;4.37;;;;;;;13.28;100.00;101501.75;4959136;28;20454;-79
2022/06/22 00:29:35;;;;;;;5.00;4.10;;;;;;;13.40;100.00;101509.25;4966755;28;20202;-80
2022/06/22 00:32:03;;;;;;;5.80;4.10;;;;;;;13.42;100.00;101523.34;4963066;28;20445;-78
2022/06/22 00:34:33;;;;;;;6.17;4.47;;;;;;;13.39;100.00;101524.56;4963520;28;20507;-80
2022/06/22 00:37:04;;;;;;;4.20;3.80;;;;;;;13.34;100.00;101521.66;4961160;28;20530;-79
2022/06/22 00:39:29;;;;;;;6.50;4.90;;;;;;;13.33;100.00;101533.47;4959265;28;20433;-79
2022/06/22 00:41:59;;;;;;;4.40;3.90;;;;;;;13.07;100.00;101505.31;4961539;28;20836;-80
2022/06/22 00:44:31;;;;;;;5.83;4.10;;;;;;;13.50;100.00;101525.88;4961793;28;20217;-79
2022/06/22 00:47:09;;;;;;;4.90;4.20;;;;;;;13.45;100.00;101510.31;4959801;28;20453;-80
2022/06/22 00:49:36;;;;;;;5.17;4.30;;;;;;;13.34;100.00;101535.16;4966838;28;20468;-79
2022/06/22 00:52:05;;;;;;;6.37;4.70;;;;;;;13.24;100.00;101530.06;4964124;28;20456;-79
2022/06/22 00:54:34;;;;;;;6.13;3.80;;;;;;;13.33;100.00;101534.28;4957710;28;20465;-79
2022/06/22 00:57:00;;;;;;;4.80;3.87;;;;;;;13.37;100.00;101528.53;4959306;28;20441;-80
2022/06/22 00:59:54;;;;;;;6.20;4.30;;;;;;;12.67;100.00;101428.91;4961938;28;20906;-80
2022/06/22 01:02:39;;;;;;;7.50;4.40;;;;;;;13.23;100.00;101528.41;4960061;28;20261;-80
2022/06/22 01:05:20;;;;;;;6.43;4.30;;;;;;;13.14;100.00;101509.94;4966213;28;20481;-79
2022/06/22 01:08:21;;;;;;;4.27;3.87;;;;;;;13.12;100.00;101519.03;4962490;28;20471;-79
2022/06/22 01:12:16;;;;;;;3.93;3.63;;;;;;;13.02;100.00;101512.38;4961345;28;20440;-79
2022/06/22 01:14:03;;;;;;;4.73;4.20;;;;;;;13.06;100.00;101509.06;4960967;28;20453;-78
2022/06/22 01:16:35;;;;;;;5.10;3.80;;;;;;;12.88;100.00;101497.97;4967801;28;20533;-78
2022/06/22 01:19:24;;;;;;;4.13;3.73;;;;;;;12.86;100.00;101506.25;4959266;28;20466;-78
2022/06/22 01:22:22;;;;;;;5.17;4.23;;;;;;;12.88;100.00;101496.13;4958007;28;21135;-79
2022/06/22 01:25:02;;;;;;;4.70;4.03;;;;;;;12.83;100.00;101506.63;4959439;28;20481;-78
2022/06/22 01:27:39;;;;;;;6.17;4.00;;;;;;;12.85;100.00;101512.66;4964029;28;20484;-79
2022/06/22 01:30:20;;;;;;;5.00;3.87;;;;;;;12.72;100.00;101509.03;4964442;28;20579;-78
2022/06/22 01:32:47;;;;;;;3.60;3.30;;;;;;;12.63;100.00;101479.59;4958479;28;20969;-78
2022/06/22 01:35:36;;;;;;;7.00;4.33;;;;;;;12.81;100.00;101500.59;4959736;28;20518;-78
2022/06/22 01:38:37;;;;;;;4.73;3.70;;;;;;;12.74;100.00;101497.06;4955138;28;20500;-78
2022/06/22 01:41:11;;;;;;;3.90;3.60;;;;;;;12.73;100.00;101503.47;4946142;28;20481;-78
2022/06/22 01:43:48;;;;;;;6.13;4.23;;;;;;;12.61;100.00;101494.25;4962277;28;20853;-78
2022/06/22 01:46:35;;;;;;;5.80;4.23;;;;;;;12.55;100.00;101486.97;4959865;28;20468;-78
2022/06/22 01:49:10;;;;;;;4.13;3.60;;;;;;;12.35;100.00;101463.47;4960475;28;20466;-78
2022/06/22 01:51:42;;;;;;;4.97;3.73;;;;;;;12.56;100.00;101491.34;4960705;28;20442;-78
2022/06/22 01:54:18;;;;;;;5.70;3.30;;;;;;;12.52;100.00;101503.50;4961348;28;20472;-78
2022/06/22 01:56:51;;;;;;;5.67;4.17;;;;;;;12.53;100.00;101510.59;4957378;28;20469;-78
2022/06/22 01:59:42;;;;;;;4.30;3.90;;;;;;;12.49;100.00;101517.38;4963449;28;20438;-79
2022/06/22 02:02:18;;;;;;;4.20;3.80;;;;;;;12.35;100.00;101479.59;4962149;28;20443;-79
2022/06/22 02:04:58;;;;;;;6.33;4.07;;;;;;;12.52;100.00;101508.91;4958831;28;20473;-78
2022/06/22 02:08:12;;;;;;;4.10;3.60;;;;;;;12.48;100.00;101510.31;4960184;28;20469;-79
2022/06/22 02:11:12;;;;;;;4.63;4.00;;;;;;;12.53;100.00;101519.47;4958798;28;20461;-79
2022/06/22 02:13:50;;;;;;;5.90;4.33;;;;;;;12.17;100.00;101460.41;4958527;28;20465;-78
2022/06/22 02:16:20;;;;;;;4.10;3.70;;;;;;;12.39;100.00;101523.91;4959436;28;20473;-79
2022/06/22 02:19:07;;;;;;;4.13;3.73;;;;;;;12.50;100.00;101529.78;4960015;28;20839;-78
2022/06/22 02:21:39;;;;;;;6.77;4.30;;;;;;;12.50;100.00;101527.09;4960092;28;20549;-79
2022/06/22 02:24:11;;;;;;;4.47;4.07;;;;;;;11.49;100.00;101392.78;4959453;28;20444;-79
2022/06/22 02:26:37;;;;;;;3.70;3.40;;;;;;;12.18;100.00;101524.78;4959617;28;20452;-79
2022/06/22 02:29:03;;;;;;;2.80;2.60;;;;;;;12.17;100.00;101531.16;4958516;28;20478;-78
2022/06/22 02:31:29;;;;;;;4.20;3.40;;;;;;;12.14;100.00;101517.25;4956865;28;21102;-77
2022/06/22 02:33:57;;;;;;;3.30;2.80;;;;;;;12.13;100.00;101527.19;4960545;28;20491;-78
2022/06/22 02:36:30;;;;;;;2.77;2.57;;;;;;;12.17;100.00;101533.00;4964395;28;20453;-78
2022/06/22 02:38:59;;;;;;;4.00;3.10;;;;;;;12.12;100.00;101527.38;4959168;28;20965;-78
2022/06/22 02:44:30;;;;;;;3.10;2.90;;;;;;;12.16;100.00;101534.06;4958924;28;20919;-78
2022/06/22 02:47:25;;;;;;;3.93;3.63;;;;;;;12.14;100.00;101534.22;4957725;28;20442;-78
2022/06/22 02:50:00;;;;;;;3.13;2.93;;;;;;;12.09;100.00;101528.63;4964668;28;20453;-78
2022/06/22 02:52:33;;;;;;;3.50;3.20;;;;;;;12.14;100.00;101530.72;4961033;28;20457;-78
2022/06/22 02:54:59;;;;;;;2.93;2.73;;;;;;;12.12;100.00;101535.44;4958855;28;20528;-78
2022/06/22 02:57:31;;;;;;;3.77;3.47;;;;;;;12.07;100.00;101538.72;4960079;28;20867;-78
2022/06/22 02:59:58;;;;;;;3.63;3.20;;;;;;;11.89;100.00;101506.03;4958717;28;20538;-78
2022/06/22 03:02:25;;;;;;;3.27;3.00;;;;;;;11.60;100.00;101439.78;4957797;28;20950;-79
2022/06/22 03:04:52;;;;;;;3.93;3.50;;;;;;;11.88;100.00;101497.16;4959589;28;20946;-78
2022/06/22 03:07:21;;;;;;;3.50;3.10;;;;;;;12.07;100.00;101538.72;4959559;28;20456;-77
2022/06/22 03:09:48;;;;;;;4.40;3.77;;;;;;;12.21;100.00;101543.22;4959466;28;20453;-79
2022/06/22 03:12:14;;;;;;;4.20;3.80;;;;;;;12.08;100.00;101542.25;4959942;28;21144;-77
2022/06/22 03:14:51;;;;;;;4.07;3.77;;;;;;;11.90;100.00;101543.50;4959512;28;20596;-78
2022/06/22 03:17:22;;;;;;;4.10;3.80;;;;;;;12.01;100.00;101546.72;4959813;28;20455;-78
2022/06/22 03:20:08;;;;;;;3.60;3.30;;;;;;;12.01;100.00;101546.72;4958399;28;20449;-78
2022/06/22 03:22:40;;;;;;;3.83;3.53;;;;;;;12.15;100.00;101552.06;4959177;28;20437;-78
2022/06/22 03:25:32;;;;;;;5.07;4.57;;;;;;;12.29;100.00;101554.84;4959616;28;20490;-77
2022/06/22 03:28:06;;;;;;;5.93;4.70;;;;;;;12.34;100.00;101553.25;4961052;28;20916;-78
2022/06/22 03:30:59;;;;;;;5.07;4.57;;;;;;;12.31;100.00;101555.50;4959517;28;20911;-76
2022/06/22 03:33:39;;;;;;;6.20;5.60;;;;;;;12.25;100.00;101570.53;4960935;28;20918;-77
2022/06/22 03:36:24;;;;;;;6.83;6.03;;;;;;;12.34;100.00;101550.56;4964335;28;20958;-76
2022/06/22 03:38:59;;;;;;;6.87;6.20;;;;;;;12.35;100.00;101554.94;4957332;28;21252;-76
2022/06/22 03:41:29;;;;;;;6.90;6.30;;;;;;;12.36;100.00;101571.91;4959053;28;20914;-76
2022/06/22 03:44:06;;;;;;;7.47;6.67;;;;;;;12.35;100.00;101573.75;4956073;28;20467;-75
2022/06/22 03:47:00;;;;;;;7.00;6.30;;;;;;;12.48;100.00;101577.59;4959408;28;20446;-76
2022/06/22 03:49:29;;;;;;;6.87;6.30;;;;;;;12.46;100.00;101574.25;4963152;28;20512;-77
2022/06/22 03:52:07;;;;;;;6.77;6.07;;;;;;;12.44;100.00;101575.28;4955288;28;20543;-76
2022/06/22 03:54:48;;;;;;;6.63;6.00;;;;;;;12.53;100.00;101580.53;4958224;28;20473;-76
2022/06/22 03:57:18;;;;;;;7.07;6.37;;;;;;;12.64;100.00;101588.06;4957188;28;20459;-76
2022/06/22 03:59:46;;;;;;;6.00;5.40;;;;;;;12.41;100.00;101564.91;4957602;28;20447;-76
2022/06/22 04:02:12;;;;;;;6.30;5.70;;;;;;;12.38;100.00;101553.69;4957021;28;20448;-76
2022/06/22 04:04:37;;;;;;;8.00;6.73;;;;;;;12.46;100.00;101563.50;4958970;28;20522;-76
2022/06/22 04:07:03;;;;;;;6.93;6.23;;;;;;;12.52;100.00;101554.63;4959904;28;20292;-75
2022/06/22 04:09:30;;;;;;;6.70;6.10;;;;;;;12.57;100.00;101560.28;4960229;28;20217;-76
2022/06/22 04:12:28;;;;;;;6.20;5.60;;;;;;;12.58;100.00;101551.16;4956009;28;20175;-76
2022/06/22 04:14:59;;;;;;;6.93;6.33;;;;;;;12.56;100.00;101554.06;4965280;28;20474;-76
2022/06/22 04:17:37;;;;;;;6.57;5.97;;;;;;;12.53;100.00;101549.09;4960399;28;20527;-76
2022/06/22 04:20:18;;;;;;;6.53;5.87;;;;;;;12.58;100.00;101549.34;4959809;28;20922;-75
2022/06/22 04:22:48;;;;;;;6.47;5.87;;;;;;;11.92;100.00;101436.63;4955347;28;21119;-75
2022/06/22 04:25:24;;;;;;;8.20;7.40;;;;;;;12.26;100.00;101483.44;4959570;28;20500;-75
2022/06/22 04:27:51;;;;;;;7.90;7.10;;;;;;;12.70;100.00;101541.56;4956776;28;20615;-75
2022/06/22 04:30:24;;;;;;;7.33;6.63;;;;;;;12.63;100.00;101532.59;4958569;28;20815;-77
2022/06/22 04:33:14;;;;;;;9.60;7.10;;;;;;;12.72;100.00;101539.47;4957208;28;20439;-77
2022/06/22 04:36:12;;;;;;;8.93;7.80;;;;;;;12.70;100.00;101530.78;4959753;28;21307;-77
2022/06/22 04:38:52;;;;;;;7.43;6.73;;;;;;;12.87;100.00;101534.84;4961570;28;20438;-76
2022/06/22 04:41:29;;;;;;;8.67;7.83;;;;;;;12.44;100.00;101440.75;4957763;28;20448;-77
2022/06/22 04:43:57;;;;;;;8.63;6.80;;;;;;;12.98;100.00;101524.53;4956959;28;20547;-77
2022/06/22 04:46:39;;;;;;;7.20;6.20;;;;;;;12.77;100.00;101479.69;4974142;28;20965;-76
2022/06/22 04:49:27;;;;;;;6.53;5.97;;;;;;;13.19;100.00;101518.22;4957937;28;20469;-77
2022/06/22 04:52:12;;;;;;;8.13;7.10;;;;;;;13.06;100.00;101481.28;4959156;28;20842;-77
2022/06/22 04:54:40;;;;;;;8.17;7.37;;;;;;;13.25;100.00;101507.53;4959950;28;20551;-76
2022/06/22 04:57:21;;;;;;;7.10;6.40;;;;;;;13.31;100.00;101520.19;4960754;28;20456;-76
2022/06/22 04:59:48;;;;;;;5.43;4.90;;;;;;;13.33;100.00;101526.19;4958264;28;20428;-76
2022/06/22 05:02:17;;;;;;;7.17;6.47;;;;;;;13.39;100.00;101518.34;4958572;28;20794;-76
2022/06/22 05:04:46;;;;;;;7.13;6.43;;;;;;;12.98;100.00;101441.06;4958985;28;20450;-75
2022/06/22 05:07:28;;;;;;;7.77;6.97;;;;;;;13.28;100.00;101498.22;4960093;28;20509;-74
2022/06/22 05:10:08;;;;;;;7.37;6.70;;;;;;;12.82;100.00;101423.41;4958578;28;20487;-74
2022/06/22 05:12:44;;;;;;;8.63;7.20;;;;;;;13.57;100.00;101510.56;4959284;28;20449;-74
2022/06/22 05:15:19;;;;;;;8.87;7.20;;;;;;;13.55;100.00;101513.44;4962540;28;20442;-75
2022/06/22 05:17:45;;;;;;;9.33;8.43;;;;;;;13.51;100.00;101490.66;4962054;28;20413;-74
2022/06/22 05:20:33;;;;;;;9.73;8.83;;;;;;;13.60;100.00;101479.66;4962252;28;20769;-75
2022/06/22 05:23:01;;;;;;;9.30;8.47;;;;;;;13.82;100.00;101513.53;4960604;28;20179;-73
2022/06/22 05:25:29;;;;;;;11.67;8.43;;;;;;;13.77;100.00;101492.59;4962464;28;20472;-74
2022/06/22 05:28:16;;;;;;;9.50;7.87;;;;;;;13.92;100.00;101496.97;4962180;28;20468;-74
2022/06/22 05:30:48;;;;;;;8.17;6.87;;;;;;;13.16;100.00;101374.00;4960469;28;20430;-74
2022/06/22 05:33:18;;;;;;;10.23;7.70;;;;;;;13.40;100.00;101402.31;4961940;28;20418;-74
2022/06/22 05:35:55;;;;;;;11.90;7.80;;;;;;;14.02;100.00;101502.78;4959427;28;20478;-74
2022/06/22 05:38:22;;;;;;;9.90;6.60;;;;;;;13.78;100.00;101459.19;4961570;28;20790;-74
2022/06/22 05:40:49;;;;;;;9.23;7.50;;;;;;;14.08;100.00;101491.16;4962218;28;20427;-74
2022/06/22 05:43:17;;;;;;;8.33;6.37;;;;;;;14.20;100.00;101507.56;4961293;28;20484;-74
2022/06/22 05:45:46;;;;;;;7.70;7.00;;;;;;;14.18;100.00;101502.41;4960275;28;20456;-74
2022/06/22 05:48:17;;;;;;;7.40;6.70;;;;;;;14.30;100.00;101521.50;4961074;28;20469;-74
2022/06/22 05:50:53;;;;;;;6.07;5.47;;;;;;;13.71;100.00;101407.13;4959834;28;20453;-75
2022/06/22 05:53:54;;;;;;;7.20;5.20;;;;;;;14.18;100.00;101474.59;4963834;28;20793;-75
2022/06/22 05:56:32;;;;;;;5.37;4.57;;;;;;;14.47;100.00;101509.25;4959909;28;20914;-75
2022/06/22 05:59:07;;;;;;;6.47;5.50;;;;;;;14.59;100.00;101509.47;4961272;28;20516;-76
2022/06/22 06:02:01;;;;;;;7.20;5.40;;;;;;;14.61;100.00;101506.56;4960683;28;20421;-76
2022/06/22 06:04:31;;;;;;;4.80;3.90;;;;;;;14.65;100.00;101513.22;4962701;28;20442;-76
2022/06/22 06:07:01;;;;;;;5.07;4.17;;;;;;;14.56;100.00;101488.31;4959751;28;20426;-77
2022/06/22 06:09:29;;;;;;;5.83;5.13;;;;;;;14.74;100.00;101511.94;4962131;28;20458;-77
2022/06/22 06:12:22;;;;;;;6.67;4.50;;;;;;;14.84;100.00;101512.38;4960847;28;20516;-77
2022/06/22 06:14:51;;;;;;;4.53;4.13;;;;;;;14.65;100.00;101462.75;4960896;28;20890;-78
2022/06/22 06:17:24;;;;;;;6.50;4.60;;;;;;;14.98;100.00;101512.31;4960369;28;20433;-77
2022/06/22 06:19:52;;;;;;;6.70;4.80;;;;;;;14.79;100.00;101466.25;4960491;28;20457;-79
2022/06/22 06:22:20;;;;;;;6.23;4.70;;;;;;;15.12;100.00;101514.78;4958645;28;20433;-78
2022/06/22 06:27:41;;;;;;;10.53;5.60;;;;;;;15.18;100.00;101523.06;4961554;28;20966;-77
2022/06/22 06:30:25;;;;;;;4.90;4.47;;;;;;;15.29;100.00;101525.13;4960002;28;20492;-78
2022/06/22 06:32:59;;;;;;;7.07;3.70;;;;;;;15.30;100.00;101533.03;4961031;28;20502;-76
2022/06/22 06:35:42;;;;;;;5.63;4.07;;;;;;;15.39;100.00;101530.91;4952635;28;20490;-77
2022/06/22 06:38:33;;;;;;;5.90;4.33;;;;;;;15.34;100.00;101528.84;4959903;28;20429;-78
2022/06/22 06:41:10;;;;;;;6.33;4.00;;;;;;;15.33;100.00;101524.50;4958224;28;20535;-78
2022/06/22 06:43:48;;;;;;;5.30;4.40;;;;;;;15.18;100.00;101486.06;4961243;28;20440;-78
2022/06/22 06:46:29;;;;;;;4.73;3.50;;;;;;;15.46;100.00;101522.78;4959716;28;20541;-78
2022/06/22 06:49:23;;;;;;;5.17;3.20;;;;;;;15.58;100.00;101521.06;4959089;28;20472;-77
2022/06/22 06:52:15;;;;;;;3.50;2.57;;;;;;;15.57;100.00;101525.63;4960995;28;20914;-78
2022/06/22 06:54:53;;;;;;;4.10;3.07;;;;;;;15.67;100.00;101529.75;4961423;28;20479;-78
2022/06/22 06:57:20;;;;;;;5.10;3.33;;;;;;;15.77;100.00;101527.44;4959286;28;20425;-78
2022/06/22 06:59:53;;;;;;;4.83;3.57;;;;;;;15.80;100.00;101529.72;4960527;28;20422;-78
2022/06/22 07:02:27;;;;;;;9.40;4.10;;;;;;;15.86;100.00;101523.44;4960287;28;20425;-78
2022/06/22 07:04:52;;;;;;;8.40;3.90;;;;;;;15.17;100.00;101424.16;4960037;28;20493;-78
2022/06/22 07:07:42;;;;;;;6.00;3.57;;;;;;;15.91;100.00;101529.03;4963761;28;20931;-79
2022/06/22 07:10:19;;;;;;;7.67;3.70;;;;;;;15.98;100.00;101527.09;4960122;28;20194;-78
2022/06/22 07:12:59;;;;;;;3.97;2.63;;;;;;;16.01;100.00;101526.66;4959293;28;20453;-79
2022/06/22 07:15:32;;;;;;;3.87;2.80;;;;;;;16.02;100.00;101511.25;4960090;28;20496;-78
2022/06/22 07:18:02;;;;;;;4.67;2.23;;;;;;;15.82;100.00;101489.72;4960238;28;20818;-78
2022/06/22 07:20:37;;;;;;;5.77;3.70;;;;;;;16.11;100.00;101520.75;4960124;28;20418;-79
2022/06/22 07:23:12;;;;;;;5.20;3.60;;;;;;;15.66;100.00;101460.50;4963787;28;21036;-79
2022/06/22 07:25:48;;;;;;;5.90;3.90;;;;;;;15.66;100.00;101449.66;4960252;28;20455;-80
2022/06/22 07:28:23;;;;;;;8.13;5.20;;;;;;;15.98;100.00;101480.28;4958419;28;20476;-78
2022/06/22 07:30:55;;;;;;;8.63;5.87;;;;;;;16.22;100.00;101528.19;4959925;28;20799;-78
2022/06/22 07:34:08;;;;;;;5.37;4.30;;;;;;;16.13;100.00;101498.91;4957984;28;20423;-79
2022/06/22 07:36:45;;;;;;;6.67;3.70;;;;;;;16.39;100.00;101523.06;4963991;28;20429;-78
2022/06/22 07:39:32;;;;;;;9.00;5.57;;;;;;;16.44;100.00;101533.25;4958563;28;20450;-77
2022/06/22 07:41:59;;;;;;;8.27;5.90;;;;;;;16.37;100.00;101525.16;4959297;28;20426;-79
2022/06/22 07:44:30;;;;;;;5.23;4.73;;;;;;;16.24;100.00;101515.25;4958272;28;20452;-78
2022/06/22 07:47:33;;;;;;;5.70;4.33;;;;;;;16.44;100.00;101534.06;4961068;28;20922;-79
2022/06/22 07:50:12;;;;;;;4.63;3.40;;;;;;;16.49;100.00;101536.13;4959325;28;20430;-80
2022/06/22 07:52:45;;;;;;;4.50;3.87;;;;;;;16.57;100.00;101532.28;4959939;28;20422;-79
2022/06/22 07:55:55;;;;;;;7.23;4.00;;;;;;;16.55;100.00;101499.16;4959733;28;21027;-80
2022/06/22 07:58:26;;;;;;;6.23;5.63;;;;;;;16.73;100.00;101537.16;4960170;28;20442;-79
2022/06/22 08:00:58;;;;;;;5.13;4.23;;;;;;;16.76;100.00;101530.47;4957682;28;20418;-81
2022/06/22 08:03:32;;;;;;;4.73;4.17;;;;;;;16.75;100.00;101520.66;4957317;28;20430;-80
2022/06/22 08:06:07;;;;;;;5.57;4.37;;;;;;;16.90;100.00;101530.13;4958841;28;20447;-79
2022/06/22 08:08:42;;;;;;;7.83;5.00;;;;;;;16.76;100.00;101536.72;4958202;28;20470;-80
2022/06/22 08:11:19;;;;;;;4.90;3.60;;;;;;;16.87;100.00;101540.59;4958516;28;20434;-80
2022/06/22 08:13:51;;;;;;;8.20;4.47;;;;;;;16.66;100.00;101514.69;4958227;28;20443;-78
2022/06/22 08:16:23;;;;;;;9.83;5.20;;;;;;;16.66;100.00;101510.13;4959895;28;20449;-78
2022/06/22 08:18:48;;;;;;;4.53;2.93;;;;;;;16.33;100.00;101466.28;4958569;28;20411;-81
2022/06/22 08:21:16;;;;;;;5.30;3.40;;;;;;;16.91;100.00;101539.09;4960578;28;20946;-81
2022/06/22 08:23:42;;;;;;;5.63;2.70;;;;;;;16.17;100.00;101427.88;4959654;28;20229;-84
2022/06/22 08:26:16;;;;;;;4.00;2.70;;;;;;;16.34;100.00;101447.09;4960181;28;20496;-80
2022/06/22 08:28:42;;;;;;;4.07;3.40;;;;;;;17.04;100.00;101541.69;4958030;28;20474;-79
2022/06/22 08:31:08;;;;;;;3.60;3.10;;;;;;;17.13;100.00;101539.50;4956309;28;20431;-80
2022/06/22 08:34:03;;;;;;;7.50;3.40;;;;;;;17.02;100.00;101518.56;4959552;28;20222;-80
2022/06/22 08:36:38;;;;;;;3.47;2.80;;;;;;;17.16;100.00;101533.63;4972406;28;20195;-80
2022/06/22 08:39:09;;;;;;;8.33;4.13;;;;;;;17.32;100.00;101534.88;4957922;28;20488;-79
2022/06/22 08:41:55;;;;;;;6.30;3.47;;;;;;;16.73;100.00;101443.16;4956673;28;20471;-80
2022/06/22 08:44:23;;;;;;;7.00;3.07;;;;;;;17.38;100.00;101537.50;4959665;28;20459;-79
2022/06/22 08:47:09;;;;;;;6.17;3.10;;;;;;;17.32;100.00;101524.88;4959367;28;20440;-80
2022/06/22 08:50:11;;;;;;;8.70;3.00;;;;;;;17.28;100.00;101539.13;4958127;28;20974;-80
2022/06/22 08:52:52;;;;;;;5.67;3.53;;;;;;;17.30;100.00;101523.44;4961101;28;20406;-80
2022/06/22 08:55:24;;;;;;;3.73;2.73;;;;;;;17.35;100.00;101529.84;4962083;28;20453;-80
2022/06/22 08:58:02;;;;;;;4.70;2.60;;;;;;;17.40;100.00;101521.03;4961780;28;20422;-79
2022/06/22 09:00:59;;;;;;;4.53;2.63;;;;;;;17.53;100.00;101523.59;4958800;28;20416;-79
2022/06/22 09:04:00;;;;;;;4.77;3.00;;;;;;;17.52;100.00;101504.81;4960214;28;20423;-80
2022/06/22 09:06:51;;;;;;;4.53;2.83;;;;;;;17.66;100.00;101519.84;4961914;28;20803;-80
2022/06/22 09:09:54;;;;;;;5.10;3.23;;;;;;;17.77;100.00;101520.97;4963466;28;20471;-81
2022/06/22 09:12:37;;;;;;;6.47;3.30;;;;;;;17.75;100.00;101523.06;4958907;28;20425;-80
2022/06/22 09:15:23;;;;;;;9.40;3.97;;;;;;;17.69;100.00;101511.25;4959665;28;20454;-80
2022/06/22 09:18:19;;;;;;;8.10;3.30;;;;;;;17.08;100.00;101374.00;4965130;28;20777;-81
2022/06/22 09:20:56;;;;;;;4.57;2.80;;;;;;;17.87;100.00;101507.69;4959508;28;20999;-81
2022/06/22 09:23:47;;;;;;;4.70;2.87;;;;;;;17.88;100.00;101519.38;4962820;28;20467;-83
2022/06/22 09:26:34;;;;;;;6.30;3.10;;;;;;;17.81;100.00;101520.28;4923235;28;1169983;-85
2022/06/22 09:29:07;;;;;;;4.20;2.80;;;;;;;17.83;100.00;101510.06;4962441;28;20199;-83
2022/06/22 09:31:47;;;;;;;6.03;3.10;;;;;;;17.18;100.00;101382.41;4975102;28;20439;-82
2022/06/22 09:34:12;;;;;;;5.40;2.60;;;;;;;18.28;100.00;101519.59;4960326;28;20431;-84
2022/06/22 09:37:11;;;;;;;5.57;2.93;;;;;;;17.73;100.00;101450.03;4962222;28;20472;-79
2022/06/22 09:40:05;;;;;;;6.03;2.80;;;;;;;18.12;100.00;101534.69;4971689;28;20199;-84
2022/06/22 09:42:36;;;;;;;4.90;3.37;;;;;;;18.12;100.00;101529.25;4969260;28;20436;-84
2022/06/22 09:45:20;;;;;;;4.20;2.70;;;;;;;18.15;100.00;101530.69;4962468;28;20442;-84
2022/06/22 09:48:02;;;;;;;4.73;3.07;;;;;;;18.24;100.00;101526.56;4961645;28;20457;-84
2022/06/22 09:50:53;;;;;;;7.60;3.17;;;;;;;18.36;100.00;101529.31;4963435;28;20423;-84
2022/06/22 09:53:52;;;;;;;3.33;2.77;;;;;;;18.37;100.00;101526.38;4964224;28;20403;-84
2022/06/22 09:57:02;;;;;;;3.60;2.60;;;;;;;18.47;100.00;101539.34;4963446;28;20911;-85
2022/06/22 09:59:53;;;;;;;9.37;3.50;;;;;;;18.35;100.00;101533.91;4962178;28;20506;-82
2022/06/22 10:02:27;;;;;;;8.07;4.00;;;;;;;17.64;100.00;101437.88;4957278;28;20444;-83
2022/06/22 10:05:01;;;;;;;4.80;3.07;;;;;;;18.32;100.00;101530.84;4974869;28;20443;-85
2022/06/22 10:07:57;;;;;;;4.30;2.40;;;;;;;17.94;100.00;101439.78;4977313;28;20429;-82
2022/06/22 10:10:25;;;;;;;4.00;2.77;;;;;;;18.44;100.00;101520.81;4967368;28;20435;-85
2022/06/22 10:13:22;;;;;;;5.90;2.93;;;;;;;17.94;100.00;101434.34;4974717;28;20486;-83
2022/06/22 10:16:26;;;;;;;6.50;3.07;;;;;;;18.59;100.00;101525.78;4965477;28;20545;-84
2022/06/22 10:18:58;;;;;;;3.87;2.83;;;;;;;18.47;100.00;101520.34;4943109;28;20430;-84
2022/06/22 10:21:29;;;;;;;5.00;3.00;;;;;;;18.62;100.00;101523.41;4975980;28;20423;-84
2022/06/22 10:24:14;;;;;;;5.13;3.13;;;;;;;18.53;100.00;101524.84;4960041;28;20472;-84
2022/06/22 10:26:51;;;;;;;3.77;2.27;;;;;;;18.57;100.00;101526.00;4962662;28;20429;-83
2022/06/22 10:29:38;;;;;;;5.10;2.63;;;;;;;18.62;100.00;101523.41;4964759;28;20980;-83
2022/06/22 10:32:10;;;;;;;2.93;2.40;;;;;;;18.55;100.00;101520.00;4962227;28;20468;-84
2022/06/22 10:34:50;;;;;;;2.90;2.23;;;;;;;18.69;100.00;101517.88;4963496;28;20592;-82
2022/06/22 10:37:34;;;;;;;4.40;2.50;;;;;;;18.66;100.00;101516.47;4960383;28;20547;-82
2022/06/22 10:40:11;;;;;;;5.10;2.67;;;;;;;18.38;100.00;101445.72;4961822;28;20434;-84
2022/06/22 10:45:48;;;;;;;3.83;2.60;;;;;;;18.60;100.00;101437.78;4962086;28;20462;-84
2022/06/22 10:48:24;;;;;;;3.73;2.60;;;;;;;18.95;100.00;101503.00;4959262;28;20693;-84
2022/06/22 10:51:03;;;;;;;5.20;2.70;;;;;;;18.79;100.00;101482.81;4960788;28;20748;-84
2022/06/22 10:53:40;;;;;;;5.47;2.17;;;;;;;19.03;100.00;101524.38;4958526;28;20926;-83
2022/06/22 10:56:27;;;;;;;5.00;2.83;;;;;;;19.06;100.00;101518.44;4960312;28;20445;-84
2022/06/22 10:59:08;;;;;;;3.57;2.00;;;;;;;19.04;100.00;101515.16;4960481;28;20475;-84
2022/06/22 11:02:27;;;;;;;3.60;2.17;;;;;;;18.99;100.00;101509.63;4965033;28;20997;-84
2022/06/22 11:04:58;;;;;;;6.80;3.03;;;;;;;19.02;100.00;101519.19;4969565;28;20963;-83
2022/06/22 11:07:35;;;;;;;3.73;2.23;;;;;;;19.15;100.00;101505.31;4961144;28;20835;-84
2022/06/22 11:10:25;;;;;;;3.30;2.30;;;;;;;19.41;100.00;101512.09;4959618;28;20429;-83
2022/06/22 11:13:12;;;;;;;3.43;2.37;;;;;;;19.27;100.00;101513.47;4958930;28;20904;-82
2022/06/22 11:15:53;;;;;;;3.57;2.20;;;;;;;19.16;100.00;101512.44;4959765;28;20434;-83
2022/06/22 11:18:42;;;;;;;4.50;2.40;;;;;;;19.47;100.00;101518.47;4976610;28;20426;-84
2022/06/22 11:21:38;;;;;;;3.80;2.50;;;;;;;19.12;100.00;101500.34;4959481;28;20438;-83
2022/06/22 11:24:48;;;;;;;3.87;1.80;;;;;;;19.17;100.00;101465.13;4964394;28;20429;-83
2022/06/22 11:30:57;;;;;;;5.57;2.80;;;;;;;18.77;100.00;101433.28;5016348;28;20418;-83
2022/06/22 11:33:44;;;;;;;4.40;2.03;;;;;;;19.48;100.00;101510.09;4975460;28;20950;-84
2022/06/22 11:36:31;;;;;;;3.03;1.73;;;;;;;19.66;100.00;101500.13;4958300;28;20442;-84
2022/06/22 11:39:30;;;;;;;2.63;1.43;;;;;;;19.85;100.00;101505.13;4955607;28;20521;-84
2022/06/22 11:42:25;;;;;;;3.03;2.00;;;;;;;19.83;100.00;101499.06;4973984;28;20433;-84
2022/06/22 11:48:06;;;;;;;3.00;1.90;;;;;;;20.07;100.00;101497.03;4963070;28;20473;-86
2022/06/22 11:50:50;;;;;;;4.03;1.93;;;;;;;20.07;100.00;101496.22;4960332;28;20422;-84
2022/06/22 11:53:33;;;;;;;3.57;1.53;;;;;;;19.91;100.00;101500.59;4960886;28;20425;-86
2022/06/22 11:56:07;;;;;;;4.23;2.30;;;;;;;19.78;100.00;101496.25;4959971;28;20537;-85
2022/06/22 11:58:54;;;;;;;4.03;2.47;;;;;;;18.99;100.00;101411.75;4959598;28;20415;-83
2022/06/22 12:01:48;;;;;;;3.53;2.30;;;;;;;19.50;100.00;101488.06;4962215;28;20482;-84
2022/06/22 12:04:36;;;;;;;2.60;2.03;;;;;;;19.81;100.00;101476.72;4960025;28;20541;-84
2022/06/22 12:07:21;;;;;;;3.77;2.13;;;;;;;20.06;100.00;101478.25;4970642;28;20437;-83
2022/06/22 12:10:07;;;;;;;3.53;1.97;;;;;;;19.93;100.00;101484.84;4962869;28;20843;-84
2022/06/22 12:12:46;;;;;;;3.53;2.00;;;;;;;20.15;100.00;101478.66;4959115;28;20468;-85
2022/06/22 12:15:20;;;;;;;1.73;1.50;;;;;;;20.22;100.00;101466.53;4959525;28;20454;-85
2022/06/22 12:18:27;;;;;;;3.53;2.00;;;;;;;20.26;100.00;101458.69;4965979;28;20956;-86
2022/06/22 12:21:21;;;;;;;2.50;1.87;;;;;;;20.42;100.00;101454.28;4955416;28;20445;-84
2022/06/22 12:24:18;;;;;;;2.30;2.10;;;;;;;20.43;100.00;101453.22;4962635;28;20448;-85
2022/06/22 12:27:05;;;;;;;3.00;2.23;;;;;;;20.25;100.00;101448.84;4963583;28;20456;-84